sensor_id;sensor_type;location;lat;lon;timestamp;pressure;altitude;pressure_sealevel;temperature;humidity
9421;BME280;4749;51.398;5.466;2023-09-19T00:01:41;100657.53;;;15.79;100.00
9421;BME280;4749;51.398;5.466;2023-09-19T00:04:08;100661.13;;;15.76;100.00
9421;BME280;4749;51.398;5.466;2023-09-19T00:06:37;100659.41;;;15.75;100.00
9421;BME280;4749;51.398;5.466;2023-09-19T00:09:04;100660.31;;;15.74;100.00
9421;BME280;4749;51.398;5.466;2023-09-19T00:11:32;100661.22;;;15.71;100.00
9421;BME280;4749;51.398;5.466;2023-09-19T00:14:01;100671.91;;;15.68;100.00
9421;BME280;4749;51.398;5.466;2023-09-19T00:16:28;100666.66;;;15.65;100.00
9421;BME280;4749;51.398;5.466;2023-09-19T00:18:55;100674.66;;;15.62;100.00
9421;BME280;4749;51.398;5.466;2023-09-19T00:21:22;100677.34;;;15.59;100.00
9421;BME280;4749;51.398;5.466;2023-09-19T00:23:49;100675.66;;;15.55;100.00
9421;BME280;4749;51.398;5.466;2023-09-19T00:26:18;100686.34;;;15.52;100.00
9421;BME280;4749;51.398;5.466;2023-09-19T00:28:48;100676.69;;;15.49;100.00
9421;BME280;4749;51.398;5.466;2023-09-19T00:31:15;100682.00;;;15.46;100.00
9421;BME280;4749;51.398;5.466;2023-09-19T00:33:42;100681.19;;;15.44;100.00
9421;BME280;4749;51.398;5.466;2023-09-19T00:36:09;100681.22;;;15.43;100.00
9421;BME280;4749;51.398;5.466;2023-09-19T00:38:37;100696.25;;;15.42;100.00
9421;BME280;4749;51.398;5.466;2023-09-19T00:41:04;100701.59;;;15.39;100.00
9421;BME280;4749;51.398;5.466;2023-09-19T00:43:31;100699.78;;;15.41;100.00
9421;BME280;4749;51.398;5.466;2023-09-19T00:46:01;100694.53;;;15.38;100.00
9421;BME280;4749;51.398;5.466;2023-09-19T00:48:31;100698.97;;;15.38;100.00
9421;BME280;4749;51.398;5.466;2023-09-19T00:51:04;100705.19;;;15.35;100.00
9421;BME280;4749;51.398;5.466;2023-09-19T00:53:32;100690.25;;;15.33;100.00
9421;BME280;4749;51.398;5.466;2023-09-19T00:56:03;100707.91;;;15.32;100.00
9421;BME280;4749;51.398;5.466;2023-09-19T00:58:35;100717.69;;;15.30;100.00
9421;BME280;4749;51.398;5.466;2023-09-19T01:01:05;100712.38;;;15.29;100.00
9421;BME280;4749;51.398;5.466;2023-09-19T01:03:34;100722.09;;;15.28;100.00
9421;BME280;4749;51.398;5.466;2023-09-19T01:06:03;100725.66;;;15.27;100.00
9421;BME280;4749;51.398;5.466;2023-09-19T01:08:30;100727.44;;;15.27;100.00
9421;BME280;4749;51.398;5.466;2023-09-19T01:11:13;100738.97;;;15.24;100.00
9421;BME280;4749;51.398;5.466;2023-09-19T01:14:07;100741.66;;;15.23;100.00
9421;BME280;4749;51.398;5.466;2023-09-19T01:26:11;100747.13;;;15.13;100.00
9421;BME280;4749;51.398;5.466;2023-09-19T01:29:38;100745.34;;;15.12;100.00
9421;BME280;4749;51.398;5.466;2023-09-19T01:32:08;100749.78;;;15.10;100.00
9421;BME280;4749;51.398;5.466;2023-09-19T01:34:49;100745.41;;;15.09;100.00
9421;BME280;4749;51.398;5.466;2023-09-19T01:37:18;100756.00;;;15.09;100.00
9421;BME280;4749;51.398;5.466;2023-09-19T01:40:03;100753.38;;;15.08;100.00
9421;BME280;4749;51.398;5.466;2023-09-19T01:45:59;100754.25;;;15.08;100.00
9421;BME280;4749;51.398;5.466;2023-09-19T01:51:41;100760.44;;;15.07;100.00
9421;BME280;4749;51.398;5.466;2023-09-19T01:54:12;100756.06;;;15.05;100.00
9421;BME280;4749;51.398;5.466;2023-09-19T01:56:51;100753.41;;;15.05;100.00
9421;BME280;4749;51.398;5.466;2023-09-19T01:59:27;100749.03;;;15.05;100.00
9421;BME280;4749;51.398;5.466;2023-09-19T02:01:55;100755.19;;;15.04;100.00
9421;BME280;4749;51.398;5.466;2023-09-19T02:04:23;100748.16;;;15.03;100.00
9421;BME280;4749;51.398;5.466;2023-09-19T02:06:51;100756.97;;;15.04;100.00
9421;BME280;4749;51.398;5.466;2023-09-19T02:09:18;100750.81;;;15.02;100.00
9421;BME280;4749;51.398;5.466;2023-09-19T02:11:45;100758.81;;;15.00;100.00
9421;BME280;4749;51.398;5.466;2023-09-19T02:14:13;100750.84;;;15.00;100.00
9421;BME280;4749;51.398;5.466;2023-09-19T02:16:41;100754.41;;;14.99;100.00
9421;BME280;4749;51.398;5.466;2023-09-19T02:19:09;100752.69;;;14.95;100.00
9421;BME280;4749;51.398;5.466;2023-09-19T02:21:36;100743.06;;;14.91;100.00
9421;BME280;4749;51.398;5.466;2023-09-19T02:24:03;100745.75;;;14.89;100.00
9421;BME280;4749;51.398;5.466;2023-09-19T02:26:31;100747.53;;;14.89;100.00
9421;BME280;4749;51.398;5.466;2023-09-19T02:28:58;100741.41;;;14.85;100.00
9421;BME280;4749;51.398;5.466;2023-09-19T02:31:26;100750.28;;;14.83;100.00
9421;BME280;4749;51.398;5.466;2023-09-19T02:33:56;100753.81;;;14.82;100.00
9421;BME280;4749;51.398;5.466;2023-09-19T02:36:23;100751.19;;;14.80;100.00
9421;BME280;4749;51.398;5.466;2023-09-19T02:38:51;100749.44;;;14.79;100.00
9421;BME280;4749;51.398;5.466;2023-09-19T02:41:18;100752.97;;;14.78;100.00
9421;BME280;4749;51.398;5.466;2023-09-19T02:43:45;100748.63;;;14.76;100.00
9421;BME280;4749;51.398;5.466;2023-09-19T02:46:14;100753.06;;;14.74;100.00
9421;BME280;4749;51.398;5.466;2023-09-19T02:48:41;100758.38;;;14.72;100.00
9421;BME280;4749;51.398;5.466;2023-09-19T02:51:08;100751.31;;;14.71;100.00
9421;BME280;4749;51.398;5.466;2023-09-19T02:53:36;100748.66;;;14.71;100.00
9421;BME280;4749;51.398;5.466;2023-09-19T02:56:04;100760.19;;;14.69;100.00
9421;BME280;4749;51.398;5.466;2023-09-19T02:58:31;100754.06;;;14.67;100.00
9421;BME280;4749;51.398;5.466;2023-09-19T03:01:09;100756.69;;;14.67;100.00
9421;BME280;4749;51.398;5.466;2023-09-19T03:03:40;100764.66;;;14.65;100.00
9421;BME280;4749;51.398;5.466;2023-09-19T03:06:08;100756.75;;;14.63;100.00
9421;BME280;4749;51.398;5.466;2023-09-19T03:08:36;100762.91;;;14.62;100.00
9421;BME280;4749;51.398;5.466;2023-09-19T03:11:06;100764.69;;;14.62;100.00
9421;BME280;4749;51.398;5.466;2023-09-19T03:13:36;100768.25;;;14.61;100.00
9421;BME280;4749;51.398;5.466;2023-09-19T03:16:05;100766.50;;;14.60;100.00
9421;BME280;4749;51.398;5.466;2023-09-19T03:18:36;100770.03;;;14.59;100.00
9421;BME280;4749;51.398;5.466;2023-09-19T03:21:04;100763.91;;;14.57;100.00
9421;BME280;4749;51.398;5.466;2023-09-19T03:23:31;100760.38;;;14.56;100.00
9421;BME280;4749;51.398;5.466;2023-09-19T03:25:58;100756.00;;;14.55;100.00
9421;BME280;4749;51.398;5.466;2023-09-19T03:28:26;100769.22;;;14.55;100.00
9421;BME280;4749;51.398;5.466;2023-09-19T03:31:04;100764.84;;;14.53;100.00
9421;BME280;4749;51.398;5.466;2023-09-19T03:33:32;100767.50;;;14.51;100.00
9421;BME280;4749;51.398;5.466;2023-09-19T03:36:01;100764.88;;;14.51;100.00
9421;BME280;4749;51.398;5.466;2023-09-19T03:38:33;100764.88;;;14.51;100.00
9421;BME280;4749;51.398;5.466;2023-09-19T03:41:02;100769.31;;;14.49;100.00
9421;BME280;4749;51.398;5.466;2023-09-19T03:43:31;100761.41;;;14.48;100.00
9421;BME280;4749;51.398;5.466;2023-09-19T03:46:02;100758.75;;;14.48;100.00
9421;BME280;4749;51.398;5.466;2023-09-19T03:48:32;100764.91;;;14.48;100.00
9421;BME280;4749;51.398;5.466;2023-09-19T03:51:00;100768.44;;;14.49;100.00
9421;BME280;4749;51.398;5.466;2023-09-19T03:53:28;100761.41;;;14.48;100.00
9421;BME280;4749;51.398;5.466;2023-09-19T03:55:55;100759.66;;;14.47;100.00
9421;BME280;4749;51.398;5.466;2023-09-19T03:58:22;100746.38;;;14.50;100.00
9421;BME280;4749;51.398;5.466;2023-09-19T04:00:50;100759.56;;;14.51;100.00
9421;BME280;4749;51.398;5.466;2023-09-19T04:03:17;100762.19;;;14.53;100.00
9421;BME280;4749;51.398;5.466;2023-09-19T04:05:48;100749.84;;;14.53;100.00
9421;BME280;4749;51.398;5.466;2023-09-19T04:08:15;100748.97;;;14.53;100.00
9421;BME280;4749;51.398;5.466;2023-09-19T04:10:43;100751.56;;;14.54;100.00
9421;BME280;4749;51.398;5.466;2023-09-19T04:13:11;100762.16;;;14.54;100.00
9421;BME280;4749;51.398;5.466;2023-09-19T04:15:39;100761.28;;;14.55;100.00
9421;BME280;4749;51.398;5.466;2023-09-19T04:18:07;100753.34;;;14.54;100.00
9421;BME280;4749;51.398;5.466;2023-09-19T04:20:34;100756.00;;;14.54;100.00
9421;BME280;4749;51.398;5.466;2023-09-19T04:23:01;100753.34;;;14.54;100.00
9421;BME280;4749;51.398;5.466;2023-09-19T04:25:28;100759.50;;;14.56;100.00
9421;BME280;4749;51.398;5.466;2023-09-19T04:27:55;100763.88;;;14.58;100.00
9421;BME280;4749;51.398;5.466;2023-09-19T04:30:22;100772.69;;;14.59;100.00
9421;BME280;4749;51.398;5.466;2023-09-19T04:32:49;100780.59;;;14.60;100.00
9421;BME280;4749;51.398;5.466;2023-09-19T04:35:18;100784.13;;;14.61;100.00
9421;BME280;4749;51.398;5.466;2023-09-19T04:37:45;100789.41;;;14.61;100.00
9421;BME280;4749;51.398;5.466;2023-09-19T04:40:13;100787.63;;;14.61;100.00
9421;BME280;4749;51.398;5.466;2023-09-19T04:42:54;100797.31;;;14.62;100.00
9421;BME280;4749;51.398;5.466;2023-09-19T04:45:28;100801.75;;;14.63;100.00
9421;BME280;4749;51.398;5.466;2023-09-19T04:47:56;100815.81;;;14.66;100.00
9421;BME280;4749;51.398;5.466;2023-09-19T04:50:23;100819.25;;;14.71;100.00
9421;BME280;4749;51.398;5.466;2023-09-19T04:52:55;100825.34;;;14.76;100.00
9421;BME280;4749;51.398;5.466;2023-09-19T04:55:22;100821.78;;;14.78;100.00
9421;BME280;4749;51.398;5.466;2023-09-19T04:57:52;100829.63;;;14.84;100.00
9421;BME280;4749;51.398;5.466;2023-09-19T05:00:22;100825.16;;;14.88;100.00
9421;BME280;4749;51.398;5.466;2023-09-19T05:02:55;100831.28;;;14.91;100.00
9421;BME280;4749;51.398;5.466;2023-09-19T05:05:24;100834.75;;;14.97;100.00
9421;BME280;4749;51.398;5.466;2023-09-19T05:07:52;100838.25;;;14.99;100.00
9421;BME280;4749;51.398;5.466;2023-09-19T05:10:23;100832.03;;;15.01;100.00
9421;BME280;4749;51.398;5.466;2023-09-19T05:12:53;100832.06;;;15.00;100.00
9421;BME280;4749;51.398;5.466;2023-09-19T05:15:21;100837.34;;;15.00;100.00
9421;BME280;4749;51.398;5.466;2023-09-19T05:17:49;100840.94;;;14.97;100.00
9421;BME280;4749;51.398;5.466;2023-09-19T05:20:23;100844.47;;;14.95;100.00
9421;BME280;4749;51.398;5.466;2023-09-19T05:23:07;100849.78;;;14.93;100.00
9421;BME280;4749;51.398;5.466;2023-09-19T05:25:37;100847.22;;;14.90;100.00
9421;BME280;4749;51.398;5.466;2023-09-19T05:28:06;100848.97;;;14.88;100.00
9421;BME280;4749;51.398;5.466;2023-09-19T05:30:35;100859.56;;;14.88;100.00
9421;BME280;4749;51.398;5.466;2023-09-19T05:33:07;100840.19;;;14.86;100.00
9421;BME280;4749;51.398;5.466;2023-09-19T05:35:35;100849.00;;;14.86;100.00
9421;BME280;4749;51.398;5.466;2023-09-19T05:38:07;100847.25;;;14.88;100.00
9421;BME280;4749;51.398;5.466;2023-09-19T05:40:36;100845.47;;;14.87;100.00
9421;BME280;4749;51.398;5.466;2023-09-19T05:43:05;100837.53;;;14.89;100.00
9421;BME280;4749;51.398;5.466;2023-09-19T05:45:33;100849.81;;;14.91;100.00
9421;BME280;4749;51.398;5.466;2023-09-19T05:48:14;100845.38;;;14.93;100.00
9421;BME280;4749;51.398;5.466;2023-09-19T05:50:43;100843.56;;;14.96;100.00
9421;BME280;4749;51.398;5.466;2023-09-19T05:53:11;100855.88;;;15.00;100.00
9421;BME280;4749;51.398;5.466;2023-09-19T05:55:42;100846.13;;;15.02;100.00
9421;BME280;4749;51.398;5.466;2023-09-19T05:58:10;100849.63;;;15.05;100.00
9421;BME280;4749;51.398;5.466;2023-09-19T06:00:43;100843.38;;;15.09;100.00
9421;BME280;4749;51.398;5.466;2023-09-19T06:03:11;100843.31;;;15.14;100.00
9421;BME280;4749;51.398;5.466;2023-09-19T06:05:41;100844.97;;;15.19;100.00
9421;BME280;4749;51.398;5.466;2023-09-19T06:08:08;100846.66;;;15.25;100.00
9421;BME280;4749;51.398;5.466;2023-09-19T06:10:36;100842.19;;;15.27;100.00
9421;BME280;4749;51.398;5.466;2023-09-19T06:13:05;100844.72;;;15.35;100.00
9421;BME280;4749;51.398;5.466;2023-09-19T06:15:33;100851.66;;;15.42;100.00
9421;BME280;4749;51.398;5.466;2023-09-19T06:18:04;100847.19;;;15.47;100.00
9421;BME280;4749;51.398;5.466;2023-09-19T06:20:32;100859.38;;;15.54;100.00
9421;BME280;4749;51.398;5.466;2023-09-19T06:23:01;100863.72;;;15.61;100.00
9421;BME280;4749;51.398;5.466;2023-09-19T06:25:29;100860.09;;;15.67;100.00
9421;BME280;4749;51.398;5.466;2023-09-19T06:27:57;100859.06;;;15.75;100.00
9421;BME280;4749;51.398;5.466;2023-09-19T06:30:24;100857.16;;;15.82;100.00
9421;BME280;4749;51.398;5.466;2023-09-19T06:32:57;100868.50;;;15.90;100.00
9421;BME280;4749;51.398;5.466;2023-09-19T06:35:26;100869.28;;;15.95;100.00
9421;BME280;4749;51.398;5.466;2023-09-19T06:37:54;100873.56;;;16.02;100.00
9421;BME280;4749;51.398;5.466;2023-09-19T06:40:21;100884.03;;;16.10;100.00
9421;BME280;4749;51.398;5.466;2023-09-19T06:42:52;100878.56;;;16.18;100.00
9421;BME280;4749;51.398;5.466;2023-09-19T06:45:21;100889.03;;;16.25;100.00
9421;BME280;4749;51.398;5.466;2023-09-19T06:47:51;100883.63;;;16.30;100.00
9421;BME280;4749;51.398;5.466;2023-09-19T06:50:21;100885.28;;;16.36;100.00
9421;BME280;4749;51.398;5.466;2023-09-19T06:52:54;100885.19;;;16.40;100.00
9421;BME280;4749;51.398;5.466;2023-09-19T06:55:22;100886.88;;;16.44;100.00
9421;BME280;4749;51.398;5.466;2023-09-19T06:57:55;100885.84;;;16.51;100.00
9421;BME280;4749;51.398;5.466;2023-09-19T07:00:23;100873.34;;;16.56;100.00
9421;BME280;4749;51.398;5.466;2023-09-19T07:02:59;100889.22;;;16.59;100.00
9421;BME280;4749;51.398;5.466;2023-09-19T07:05:28;100881.25;;;16.59;100.00
9421;BME280;4749;51.398;5.466;2023-09-19T07:07:56;100890.03;;;16.61;100.00
9421;BME280;4749;51.398;5.466;2023-09-19T07:10:23;100885.47;;;16.68;100.00
9421;BME280;4749;51.398;5.466;2023-09-19T07:12:58;100880.91;;;16.76;100.00
9421;BME280;4749;51.398;5.466;2023-09-19T07:15:27;100879.78;;;16.86;100.00
9421;BME280;4749;51.398;5.466;2023-09-19T07:17:55;100876.88;;;16.97;100.00
9421;BME280;4749;51.398;5.466;2023-09-19T07:20:24;100878.50;;;17.04;100.00
9421;BME280;4749;51.398;5.466;2023-09-19T07:22:56;100887.16;;;17.12;100.00
9421;BME280;4749;51.398;5.466;2023-09-19T07:25:27;100873.72;;;17.19;100.00
9421;BME280;4749;51.398;5.466;2023-09-19T07:27:56;100877.03;;;17.28;100.00
9421;BME280;4749;51.398;5.466;2023-09-19T07:30:28;100883.06;;;17.35;100.00
9421;BME280;4749;51.398;5.466;2023-09-19T07:32:56;100884.72;;;17.40;100.00
9421;BME280;4749;51.398;5.466;2023-09-19T07:35:23;100891.69;;;17.44;100.00
9421;BME280;4749;51.398;5.466;2023-09-19T07:37:51;100888.13;;;17.45;100.00
9421;BME280;4749;51.398;5.466;2023-09-19T07:40:24;100875.56;;;17.52;100.00
9421;BME280;4749;51.398;5.466;2023-09-19T07:42:58;100883.34;;;17.60;100.00
9421;BME280;4749;51.398;5.466;2023-09-19T07:45:28;100879.50;;;17.71;100.00
9421;BME280;4749;51.398;5.466;2023-09-19T07:47:59;100881.06;;;17.80;100.00
9421;BME280;4749;51.398;5.466;2023-09-19T07:50:34;100888.88;;;17.86;100.00
9421;BME280;4749;51.398;5.466;2023-09-19T07:53:04;100887.81;;;17.93;100.00
9421;BME280;4749;51.398;5.466;2023-09-19T07:55:32;100887.56;;;18.03;100.00
9421;BME280;4749;51.398;5.466;2023-09-19T07:58:01;100890.72;;;18.15;100.00
9421;BME280;4749;51.398;5.466;2023-09-19T08:00:31;100885.13;;;18.26;100.00
9421;BME280;4749;51.398;5.466;2023-09-19T08:02:59;100888.41;;;18.36;100.00
9421;BME280;4749;51.398;5.466;2023-09-19T08:05:38;100887.03;;;18.52;100.00
9421;BME280;4749;51.398;5.466;2023-09-19T08:08:10;100886.63;;;18.67;100.00
9421;BME280;4749;51.398;5.466;2023-09-19T08:10:45;100885.50;;;18.74;100.00
9421;BME280;4749;51.398;5.466;2023-09-19T08:13:16;100880.81;;;18.82;100.00
9421;BME280;4749;51.398;5.466;2023-09-19T08:15:44;100893.88;;;18.90;100.00
9421;BME280;4749;51.398;5.466;2023-09-19T08:18:13;100884.94;;;18.93;100.00
9421;BME280;4749;51.398;5.466;2023-09-19T08:20:41;100893.66;;;18.98;100.00
9421;BME280;4749;51.398;5.466;2023-09-19T08:23:09;100885.59;;;19.01;100.00
9421;BME280;4749;51.398;5.466;2023-09-19T08:25:36;100901.41;;;19.05;100.00
9421;BME280;4749;51.398;5.466;2023-09-19T08:28:05;100887.09;;;19.08;100.00
9421;BME280;4749;51.398;5.466;2023-09-19T08:30:35;100899.50;;;19.10;100.00
9421;BME280;4749;51.398;5.466;2023-09-19T08:33:04;100888.72;;;19.13;100.00
9421;BME280;4749;51.398;5.466;2023-09-19T08:35:32;100891.13;;;19.21;100.00
9421;BME280;4749;51.398;5.466;2023-09-19T08:37:59;100891.13;;;19.21;100.00
9421;BME280;4749;51.398;5.466;2023-09-19T08:40:32;100894.25;;;19.35;100.00
9421;BME280;4749;51.398;5.466;2023-09-19T08:43:00;100910.22;;;19.35;100.00
9421;BME280;4749;51.398;5.466;2023-09-19T08:45:27;100896.22;;;19.29;100.00
9421;BME280;4749;51.398;5.466;2023-09-19T08:48:26;100892.69;;;19.55;100.00
9421;BME280;4749;51.398;5.466;2023-09-19T08:51:00;100889.16;;;19.54;100.00
9421;BME280;4749;51.398;5.466;2023-09-19T08:54:08;100899.41;;;19.68;100.00
9421;BME280;4749;51.398;5.466;2023-09-19T08:56:39;100894.94;;;19.68;100.00
9421;BME280;4749;51.398;5.466;2023-09-19T08:59:07;100894.81;;;19.72;100.00
9421;BME280;4749;51.398;5.466;2023-09-19T09:01:35;100905.56;;;19.70;100.00
9421;BME280;4749;51.398;5.466;2023-09-19T09:04:03;100890.63;;;19.64;100.00
9421;BME280;4749;51.398;5.466;2023-09-19T09:06:36;100892.63;;;19.58;100.00
9421;BME280;4749;51.398;5.466;2023-09-19T09:09:04;100894.41;;;19.57;100.00
9421;BME280;4749;51.398;5.466;2023-09-19T09:11:33;100897.88;;;19.61;100.00
9421;BME280;4749;51.398;5.466;2023-09-19T09:14:01;100888.22;;;19.57;100.00
9421;BME280;4749;51.398;5.466;2023-09-19T09:16:30;100895.03;;;19.65;100.00
9421;BME280;4749;51.398;5.466;2023-09-19T09:18:58;100888.94;;;19.62;100.00
9421;BME280;4749;51.398;5.466;2023-09-19T09:21:25;100894.22;;;19.63;100.00
9421;BME280;4749;51.398;5.466;2023-09-19T09:23:53;100892.31;;;19.67;100.00
9421;BME280;4749;51.398;5.466;2023-09-19T09:26:41;100889.78;;;19.89;100.00
9421;BME280;4749;51.398;5.466;2023-09-19T09:29:13;100895.84;;;19.94;100.00
9421;BME280;4749;51.398;5.466;2023-09-19T09:31:47;100897.44;;;19.98;100.00
9421;BME280;4749;51.398;5.466;2023-09-19T09:34:16;100890.84;;;20.08;100.00
9421;BME280;4749;51.398;5.466;2023-09-19T09:36:48;100910.78;;;20.23;100.00
9421;BME280;4749;51.398;5.466;2023-09-19T09:39:32;100902.38;;;20.34;100.00
9421;BME280;4749;51.398;5.466;2023-09-19T09:41:59;100897.22;;;20.29;100.00
9421;BME280;4749;51.398;5.466;2023-09-19T09:44:27;100899.19;;;20.24;100.00
9421;BME280;4749;51.398;5.466;2023-09-19T09:46:59;100888.69;;;20.44;100.00
9421;BME280;4749;51.398;5.466;2023-09-19T09:49:49;100893.41;;;20.36;100.00
9421;BME280;4749;51.398;5.466;2023-09-19T09:52:22;100892.56;;;20.34;100.00
9421;BME280;4749;51.398;5.466;2023-09-19T09:55:04;100886.16;;;20.40;100.00
9421;BME280;4749;51.398;5.466;2023-09-19T09:57:38;100884.16;;;20.46;100.00
9421;BME280;4749;51.398;5.466;2023-09-19T10:00:10;100886.00;;;20.68;100.00
9421;BME280;4749;51.398;5.466;2023-09-19T10:02:40;100886.91;;;20.90;100.00
9421;BME280;4749;51.398;5.466;2023-09-19T10:05:21;100886.31;;;21.05;100.00
9421;BME280;4749;51.398;5.466;2023-09-19T10:07:50;100881.31;;;21.18;100.00
9421;BME280;4749;51.398;5.466;2023-09-19T10:10:37;100887.78;;;21.36;100.00
9421;BME280;4749;51.398;5.466;2023-09-19T10:13:11;100878.81;;;21.37;100.00
9421;BME280;4749;51.398;5.466;2023-09-19T10:15:49;100882.81;;;21.25;100.00
9421;BME280;4749;51.398;5.466;2023-09-19T10:18:27;100873.28;;;21.20;100.00
9421;BME280;4749;51.398;5.466;2023-09-19T10:20:57;100880.97;;;21.05;100.00
9421;BME280;4749;51.398;5.466;2023-09-19T10:23:27;100872.63;;;20.91;100.00
9421;BME280;4749;51.398;5.466;2023-09-19T10:25:59;100878.16;;;20.87;100.00
9421;BME280;4749;51.398;5.466;2023-09-19T10:28:30;100868.34;;;20.87;100.00
9421;BME280;4749;51.398;5.466;2023-09-19T10:31:00;100863.50;;;20.97;100.00
9421;BME280;4749;51.398;5.466;2023-09-19T10:33:36;100863.13;;;21.06;100.00
9421;BME280;4749;51.398;5.466;2023-09-19T10:36:05;100872.75;;;21.10;100.00
9421;BME280;4749;51.398;5.466;2023-09-19T10:38:33;100868.09;;;21.15;100.00
9421;BME280;4749;51.398;5.466;2023-09-19T10:41:03;100870.31;;;21.26;100.00
9421;BME280;4749;51.398;5.466;2023-09-19T10:43:33;100878.06;;;21.33;100.00
9421;BME280;4749;51.398;5.466;2023-09-19T10:46:07;100869.78;;;21.40;100.00
9421;BME280;4749;51.398;5.466;2023-09-19T10:48:39;100885.00;;;21.59;100.00
9421;BME280;4749;51.398;5.466;2023-09-19T10:51:15;100880.63;;;21.79;100.00
9421;BME280;4749;51.398;5.466;2023-09-19T10:54:10;100880.47;;;21.82;100.00
9421;BME280;4749;51.398;5.466;2023-09-19T10:56:49;100876.13;;;22.00;100.00
9421;BME280;4749;51.398;5.466;2023-09-19T10:59:21;100875.31;;;21.98;100.00
9421;BME280;4749;51.398;5.466;2023-09-19T11:01:54;100880.41;;;22.04;100.00
9421;BME280;4749;51.398;5.466;2023-09-19T11:04:35;100879.63;;;22.22;100.00
9421;BME280;4749;51.398;5.466;2023-09-19T11:07:14;100870.31;;;22.31;100.00
9421;BME280;4749;51.398;5.466;2023-09-19T11:09:47;100862.53;;;22.25;100.00
9421;BME280;4749;51.398;5.466;2023-09-19T11:15:01;100858.41;;;22.17;100.00
9421;BME280;4749;51.398;5.466;2023-09-19T11:30:50;100853.97;;;22.16;100.00
9421;BME280;4749;51.398;5.466;2023-09-19T11:33:29;100837.22;;;22.32;100.00
9421;BME280;4749;51.398;5.466;2023-09-19T11:36:09;100834.41;;;22.35;100.00
9421;BME280;4749;51.398;5.466;2023-09-19T11:46:33;100810.09;;;22.39;100.00
9421;BME280;4749;51.398;5.466;2023-09-19T11:49:09;100821.25;;;22.49;100.00
9421;BME280;4749;51.398;5.466;2023-09-19T11:51:43;100818.63;;;22.66;100.00
9421;BME280;4749;51.398;5.466;2023-09-19T11:54:13;100818.63;;;22.66;100.00
9421;BME280;4749;51.398;5.466;2023-09-19T11:56:52;100819.44;;;22.87;100.00
9421;BME280;4749;51.398;5.466;2023-09-19T11:59:28;100803.81;;;23.14;100.00
9421;BME280;4749;51.398;5.466;2023-09-19T12:01:58;100806.59;;;23.30;100.00
9421;BME280;4749;51.398;5.466;2023-09-19T12:07:08;100812.34;;;23.40;100.00
9421;BME280;4749;51.398;5.466;2023-09-19T12:09:45;100809.66;;;23.40;100.00
9421;BME280;4749;51.398;5.466;2023-09-19T12:12:28;100809.81;;;23.37;100.00
9421;BME280;4749;51.398;5.466;2023-09-19T12:14:58;100800.28;;;23.31;100.00
9421;BME280;4749;51.398;5.466;2023-09-19T12:17:40;100807.53;;;23.29;100.00
9421;BME280;4749;51.398;5.466;2023-09-19T12:20:10;100811.22;;;23.26;100.00
9421;BME280;4749;51.398;5.466;2023-09-19T12:22:42;100807.19;;;23.35;100.00
9421;BME280;4749;51.398;5.466;2023-09-19T12:25:11;100805.56;;;23.33;100.00
9421;BME280;4749;51.398;5.466;2023-09-19T12:27:47;100801.13;;;23.49;100.00
9421;BME280;4749;51.398;5.466;2023-09-19T12:30:16;100801.25;;;23.65;100.00
9421;BME280;4749;51.398;5.466;2023-09-19T12:32:54;100801.78;;;23.89;100.00
9421;BME280;4749;51.398;5.466;2023-09-19T12:35:33;100812.81;;;24.00;100.00
9421;BME280;4749;51.398;5.466;2023-09-19T12:38:05;100808.06;;;23.87;100.00
9421;BME280;4749;51.398;5.466;2023-09-19T12:40:34;100814.38;;;23.86;100.00
9421;BME280;4749;51.398;5.466;2023-09-19T12:43:05;100831.38;;;23.87;100.00
9421;BME280;4749;51.398;5.466;2023-09-19T12:45:35;100813.06;;;23.78;100.00
9421;BME280;4749;51.398;5.466;2023-09-19T12:48:25;100824.84;;;23.75;100.00
9421;BME280;4749;51.398;5.466;2023-09-19T12:51:05;100814.41;;;23.69;100.00
9421;BME280;4749;51.398;5.466;2023-09-19T12:53:46;100817.94;;;23.87;100.00
9421;BME280;4749;51.398;5.466;2023-09-19T12:56:17;100814.22;;;24.07;100.00
9421;BME280;4749;51.398;5.466;2023-09-19T12:58:56;100803.84;;;24.17;100.00
9421;BME280;4749;51.398;5.466;2023-09-19T13:01:26;100796.47;;;24.20;100.00
9421;BME280;4749;51.398;5.466;2023-09-19T13:04:20;100814.41;;;24.20;100.00
9421;BME280;4749;51.398;5.466;2023-09-19T13:06:56;100811.56;;;24.23;100.00
9421;BME280;4749;51.398;5.466;2023-09-19T13:09:29;100823.16;;;24.40;100.00
9421;BME280;4749;51.398;5.466;2023-09-19T13:12:02;100807.47;;;24.49;100.00
9421;BME280;4749;51.398;5.466;2023-09-19T13:14:34;100803.56;;;24.54;100.00
9421;BME280;4749;51.398;5.466;2023-09-19T13:17:08;100808.69;;;24.59;100.00
9421;BME280;4749;51.398;5.466;2023-09-19T13:19:51;100807.91;;;24.57;100.00
9421;BME280;4749;51.398;5.466;2023-09-19T13:22:43;100810.06;;;24.50;100.00
9421;BME280;4749;51.398;5.466;2023-09-19T13:25:22;100803.63;;;24.37;100.00
9421;BME280;4749;51.398;5.466;2023-09-19T13:27:52;100816.81;;;24.08;100.00
9421;BME280;4749;51.398;5.466;2023-09-19T13:30:23;100812.44;;;23.90;100.00
9421;BME280;4749;51.398;5.466;2023-09-19T13:33:04;100819.84;;;23.85;100.00
9421;BME280;4749;51.398;5.466;2023-09-19T13:35:33;100809.78;;;23.73;100.00
9421;BME280;4749;51.398;5.466;2023-09-19T13:38:00;100819.25;;;23.80;100.00
9421;BME280;4749;51.398;5.466;2023-09-19T13:40:28;100806.22;;;23.72;100.00
9421;BME280;4749;51.398;5.466;2023-09-19T13:43:02;100812.44;;;23.55;100.00
9421;BME280;4749;51.398;5.466;2023-09-19T13:45:29;100808.25;;;23.50;100.00
9421;BME280;4749;51.398;5.466;2023-09-19T13:47:57;100802.19;;;23.46;100.00
9421;BME280;4749;51.398;5.466;2023-09-19T13:50:28;100813.13;;;23.42;100.00
9421;BME280;4749;51.398;5.466;2023-09-19T13:52:56;100812.47;;;23.37;100.00
9421;BME280;4749;51.398;5.466;2023-09-19T13:55:25;100803.44;;;23.22;100.00
9421;BME280;4749;51.398;5.466;2023-09-19T13:57:52;100809.47;;;23.08;100.00
9421;BME280;4749;51.398;5.466;2023-09-19T14:00:23;100801.09;;;22.97;100.00
9421;BME280;4749;51.398;5.466;2023-09-19T14:02:51;100798.56;;;22.94;100.00
9421;BME280;4749;51.398;5.466;2023-09-19T14:05:19;100796.13;;;23.07;100.00